Time;durP1;ratioP1;P1;durP2;ratioP2;P2;SDS_P1;SDS_P2;PMS_P1;PMS_P2;Temp;Humidity;BMP_temperature;BMP_pressure;BME280_temperature;BME280_humidity;BME280_pressure;Samples;Min_cycle;Max_cycle;Signal;HPM_P1;HPM_P2
2021/11/12 00:13:58;;;;;;;28.50;14.77;;;3.00;99.90;;;1.03;100.00;101899.19;2568128;30;137493;-40
2021/11/12 00:16:27;;;;;;;26.77;14.68;;;3.00;99.90;;;0.98;100.00;101897.75;2566764;30;138607;-40
2021/11/12 00:18:55;;;;;;;23.17;13.45;;;2.90;99.90;;;0.94;100.00;101903.50;2568661;30;136952;-40
2021/11/12 00:21:23;;;;;;;28.20;15.75;;;2.90;99.90;;;0.86;100.00;101888.81;2568330;30;138430;-40
2021/11/12 00:23:51;;;;;;;26.92;14.65;;;2.80;99.90;;;0.78;100.00;101891.28;2568335;30;137666;-40
2021/11/12 00:26:19;;;;;;;28.50;14.93;;;2.70;99.90;;;0.71;100.00;101896.28;2566538;30;138649;-40
2021/11/12 00:28:51;;;;;;;28.15;14.43;;;2.70;99.90;;;0.65;100.00;101899.47;2567603;30;137532;-40
2021/11/12 00:41:53;;;;;;;28.10;14.23;;;2.50;99.90;;;0.52;100.00;101896.88;2568449;30;137322;-40
2021/11/12 00:46:54;;;;;;;26.48;13.88;;;2.50;99.90;;;0.43;100.00;101903.81;2566175;30;138264;-40
2021/11/12 00:49:26;;;;;;;30.70;14.48;;;2.40;99.90;;;0.38;100.00;101906.00;2564698;30;136837;-40
2021/11/12 00:51:57;;;;;;;25.90;14.88;;;2.40;99.90;;;0.28;100.00;101900.50;2567854;30;139215;-39
2021/11/12 00:54:25;;;;;;;27.95;14.55;;;2.20;99.90;;;0.15;100.00;101891.69;2567626;30;138384;-40
2021/11/12 00:56:53;;;;;;;23.77;13.20;;;2.20;99.90;;;0.12;100.00;101894.56;2567179;30;137270;-40
2021/11/12 00:59:21;;;;;;;24.23;13.05;;;2.10;99.90;;;0.06;100.00;101898.59;2568097;30;137447;-40
2021/11/12 01:01:48;;;;;;;24.90;14.40;;;2.00;99.90;;;0.03;100.00;101893.47;2565604;30;138150;-40
2021/11/12 01:04:20;;;;;;;26.67;12.75;;;2.00;99.90;;;-0.01;100.00;101900.03;2567360;30;138200;-40
2021/11/12 01:06:50;;;;;;;24.10;13.23;;;1.90;99.90;;;-0.05;100.00;101898.56;2567829;30;138157;-40
2021/11/12 01:09:22;;;;;;;22.65;12.63;;;1.90;99.90;;;-0.10;100.00;101885.50;2566894;30;138194;-40
2021/11/12 01:11:50;;;;;;;24.70;13.35;;;1.90;99.90;;;-0.13;100.00;101882.19;2565083;30;138349;-40
2021/11/12 01:14:26;;;;;;;24.42;12.73;;;1.80;99.90;;;-0.20;100.00;101879.09;2568470;30;137701;-39
2021/11/12 01:16:54;;;;;;;23.48;12.75;;;1.80;99.90;;;-0.24;100.00;101881.19;2567598;30;139186;-40
2021/11/12 01:19:24;;;;;;;22.85;12.73;;;1.70;99.90;;;-0.24;100.00;101885.69;2568693;30;138559;-40
2021/11/12 01:21:51;;;;;;;26.58;13.68;;;1.70;99.90;;;-0.23;100.00;101880.22;2565789;30;136745;-40
2021/11/12 01:24:19;;;;;;;24.88;12.40;;;1.70;99.90;;;-0.23;100.00;101880.22;2567232;30;137525;-39
2021/11/12 01:26:47;;;;;;;23.10;12.10;;;1.70;99.90;;;-0.31;100.00;101880.78;2566091;30;139105;-40
2021/11/12 01:29:14;;;;;;;;;;;1.70;99.90;;;-0.39;100.00;101874.28;2568374;30;136826;-40
2021/11/12 01:31:44;;;;;;;21.60;11.55;;;1.60;99.90;;;-0.46;100.00;101876.53;2568209;30;138252;-39
2021/11/12 01:34:12;;;;;;;23.15;12.18;;;1.50;99.90;;;-0.51;100.00;101879.59;2568050;30;137047;-39
2021/11/12 01:36:46;;;;;;;25.10;12.70;;;1.50;99.90;;;-0.56;100.00;101875.53;2567468;30;138488;-40
2021/11/12 01:39:20;;;;;;;21.83;11.80;;;1.50;99.90;;;-0.63;100.00;101867.94;2565635;30;138102;-40
2021/11/12 01:41:59;;;;;;;18.48;11.30;;;1.40;99.90;;;-0.67;100.00;101863.75;2567354;30;138822;-40
2021/11/12 01:44:40;;;;;;;23.10;12.13;;;1.30;99.90;;;-0.68;100.00;101861.22;2566965;30;137738;-40
2021/11/12 01:49:50;;;;;;;25.05;12.85;;;1.30;99.90;;;-0.74;100.00;101847.28;2567441;30;138331;-39
2021/11/12 01:52:56;;;;;;;24.10;12.07;;;1.20;99.90;;;-0.76;100.00;101835.84;2567266;30;138528;-39
2021/11/12 01:55:17;;;;;;;25.83;12.38;;;1.20;99.90;;;-0.77;100.00;101834.13;2565542;30;138236;-39
2021/11/12 02:00:22;;;;;;;26.85;13.85;;;1.20;99.90;;;-0.79;100.00;101830.72;2566843;30;137607;-40
2021/11/12 02:02:49;;;;;;;27.67;14.35;;;1.20;99.90;;;-0.78;100.00;101823.50;2567499;30;139430;-40
2021/11/12 02:05:18;;;;;;;25.35;14.15;;;1.20;99.90;;;-0.76;100.00;101826.94;2567565;30;138526;-40
2021/11/12 02:07:47;;;;;;;24.42;12.82;;;1.20;99.90;;;-0.78;100.00;101821.69;2567873;30;139346;-39
2021/11/12 02:10:19;;;;;;;25.52;14.13;;;1.20;99.90;;;-0.79;100.00;101825.34;2567734;30;136932;-39
2021/11/12 02:15:15;;;;;;;26.17;13.38;;;1.20;99.90;;;-0.85;100.00;101808.84;2567256;30;138535;-39
2021/11/12 02:17:53;;;;;;;25.77;13.40;;;1.10;99.90;;;-0.87;100.00;101801.78;2565940;30;138433;-39
2021/11/12 02:20:27;;;;;;;28.92;15.43;;;1.10;99.90;;;-0.88;100.00;101805.44;2567157;30;137809;-39
2021/11/12 02:22:59;;;;;;;29.90;14.50;;;1.10;99.90;;;-0.87;100.00;101800.91;2568208;30;139101;-39
2021/11/12 02:25:35;;;;;;;28.60;15.02;;;1.10;99.90;;;-0.80;100.00;101801.31;2567617;30;137642;-39
2021/11/12 02:28:12;;;;;;;25.92;13.60;;;1.20;99.90;;;-0.81;100.00;101800.44;2564417;30;138439;-39
2021/11/12 02:30:47;;;;;;;28.58;14.30;;;1.20;99.90;;;-0.82;100.00;101793.38;2567990;30;137405;-40
2021/11/12 02:33:20;;;;;;;27.38;14.35;;;1.20;99.90;;;-0.83;100.00;101794.34;2568347;30;139089;-40
2021/11/12 02:36:14;;;;;;;26.20;14.55;;;1.10;99.90;;;-0.87;100.00;101790.19;2569183;30;137850;-39
2021/11/12 02:38:47;;;;;;;27.13;14.13;;;1.10;99.90;;;-0.92;100.00;101797.72;2568536;30;137721;-39
2021/11/12 02:41:15;;;;;;;25.20;13.10;;;1.10;99.90;;;-0.96;100.00;101796.25;2569142;30;136956;-39
2021/11/12 02:43:45;;;;;;;;;;;1.00;99.90;;;-0.98;100.00;101787.47;2568188;30;137698;-40
2021/11/12 02:46:16;;;;;;;19.98;11.35;;;1.00;99.90;;;-1.02;100.00;101786.81;2569212;30;136768;-39
2021/11/12 02:48:44;;;;;;;23.83;12.57;;;1.00;99.90;;;-1.09;100.00;101791.78;2568785;30;138854;-39
2021/11/12 02:51:18;;;;;;;26.33;12.52;;;0.90;99.90;;;-1.16;100.00;101786.03;2566829;30;136812;-39
2021/11/12 02:53:46;;;;;;;22.85;11.85;;;0.90;99.90;;;-1.21;100.00;101776.63;2568401;30;138112;-39
2021/11/12 02:56:30;;;;;;;23.73;12.38;;;0.80;99.90;;;-1.29;100.00;101766.44;2568066;30;136929;-39
2021/11/12 02:59:09;;;;;;;23.88;12.70;;;0.80;99.90;;;-1.31;100.00;101779.09;2568133;30;138263;-40
2021/11/12 03:01:44;;;;;;;22.23;12.57;;;0.70;99.90;;;-1.37;100.00;101761.66;2568446;30;138436;-40
2021/11/12 03:04:14;;;;;;;22.17;12.15;;;0.70;99.90;;;-1.38;100.00;101767.13;2566418;30;138690;-39
2021/11/12 03:06:44;;;;;;;22.45;12.00;;;0.70;99.90;;;-1.36;100.00;101762.53;2567392;30;137504;-39
2021/11/12 03:09:12;;;;;;;20.27;11.88;;;0.60;99.90;;;-1.40;100.00;101753.84;2568141;30;138449;-39
2021/11/12 03:11:42;;;;;;;23.35;12.23;;;0.60;99.90;;;-1.43;100.00;101746.03;2568265;30;137109;-39
2021/11/12 03:14:12;;;;;;;23.10;12.70;;;0.60;99.90;;;-1.46;100.00;101740.91;2569045;30;138585;-39
2021/11/12 03:16:40;;;;;;;24.45;12.27;;;0.60;99.90;;;-1.51;100.00;101735.03;2566891;30;137712;-38
2021/11/12 03:19:09;;;;;;;22.35;12.38;;;0.50;99.90;;;-1.50;100.00;101728.72;2570405;30;139146;-38
2021/11/12 03:21:41;;;;;;;24.33;12.55;;;0.50;99.90;;;-1.57;100.00;101728.28;2569862;30;136906;-38
2021/11/12 03:24:36;;;;;;;26.17;13.38;;;0.50;99.90;;;-1.52;100.00;101736.84;2569939;30;138118;-38
2021/11/12 03:27:20;;;;;;;21.45;11.90;;;0.50;99.90;;;-1.49;100.00;101744.66;2569412;30;137293;-38
2021/11/12 03:47:15;;;;;;;25.65;12.70;;;0.40;99.90;;;-1.48;100.00;101743.69;2570245;30;138373;-38
2021/11/12 03:49:52;;;;;;;25.05;12.98;;;0.50;99.90;;;-1.36;100.00;101749.97;2569433;30;138624;-38
2021/11/12 04:00:53;;;;;;;27.55;13.85;;;1.00;99.90;;;-0.79;100.00;101739.59;2571421;30;137082;-38
2021/11/12 04:03:52;;;;;;;28.92;15.18;;;1.10;99.90;;;-0.74;100.00;101741.91;2571702;30;137306;-38
2021/11/12 05:44:17;;;;;;;28.80;12.13;;;3.40;99.90;;;1.62;100.00;101653.19;2570712;30;136964;-38
2021/11/12 05:55:08;;;;;;;26.02;11.75;;;3.50;99.90;;;1.83;100.00;101637.00;2565945;30;137750;-38
2021/11/12 05:57:38;;;;;;;32.08;11.88;;;3.60;99.90;;;1.95;100.00;101628.84;2571931;30;138813;-38
2021/11/12 06:00:14;;;;;;;30.42;11.93;;;3.70;99.90;;;2.01;100.00;101617.53;2571275;30;138502;-38
2021/11/12 06:02:42;;;;;;;31.15;13.25;;;3.70;99.90;;;2.04;100.00;101613.72;2571352;30;137517;-40
2021/11/12 06:05:10;;;;;;;31.15;12.57;;;3.80;99.90;;;2.10;100.00;101613.16;2570372;30;138274;-38
2021/11/12 06:07:38;;;;;;;31.83;13.45;;;3.80;99.90;;;2.14;100.00;101606.50;2567149;30;139381;-38
2021/11/12 06:10:06;;;;;;;30.83;13.70;;;3.90;99.90;;;2.19;100.00;101606.94;2570453;30;137824;-38
2021/11/12 06:12:34;;;;;;;34.95;14.82;;;4.00;99.90;;;2.23;100.00;101600.28;2570001;30;139417;-38
2021/11/12 06:15:03;;;;;;;33.22;14.70;;;4.00;99.90;;;2.25;100.00;101597.47;2573914;30;137470;-38
2021/11/12 06:17:30;;;;;;;;;;;4.00;99.90;;;2.25;100.00;101584.84;2569256;30;138452;-38
2021/11/12 06:19:58;;;;;;;33.72;13.38;;;4.00;99.90;;;2.25;100.00;101578.63;2571676;30;136786;-38
2021/11/12 06:22:26;;;;;;;35.63;15.27;;;4.00;99.90;;;2.22;100.00;101592.38;2569004;30;137832;-38
2021/11/12 06:24:53;;;;;;;33.53;15.07;;;4.00;99.90;;;2.28;100.00;101586.41;2569811;30;138294;-38
2021/11/12 06:27:21;;;;;;;37.88;15.93;;;4.00;99.90;;;2.35;100.00;101592.94;2567803;30;138421;-38
2021/11/12 06:29:49;;;;;;;36.63;15.95;;;4.10;99.90;;;2.37;100.00;101572.09;2570411;30;138514;-38
2021/11/12 06:32:16;;;;;;;35.20;16.20;;;4.10;99.90;;;2.38;100.00;101572.97;2568555;30;138254;-38
2021/11/12 06:34:44;;;;;;;37.70;16.40;;;4.10;99.90;;;2.40;100.00;101573.69;2566416;30;137563;-37
2021/11/12 06:37:11;;;;;;;38.63;16.38;;;4.10;99.90;;;2.44;100.00;101562.50;2572507;30;137105;-38
2021/11/12 06:39:39;;;;;;;40.22;16.33;;;4.20;99.90;;;2.42;100.00;101561.78;2567778;30;138647;-38
2021/11/12 06:42:18;;;;;;;45.08;17.02;;;4.20;99.90;;;2.49;100.00;101558.50;2570794;30;138369;-38
2021/11/12 06:50:12;;;;;;;36.38;16.40;;;4.30;99.90;;;2.55;100.00;101547.16;2572505;30;137059;-38
2021/11/12 06:52:45;;;;;;;39.72;18.33;;;4.30;99.90;;;2.60;100.00;101544.91;2570674;30;138656;-39
2021/11/12 06:55:15;;;;;;;35.40;16.08;;;4.30;99.90;;;2.67;100.00;101551.44;2567772;30;137655;-38
2021/11/12 06:57:44;;;;;;;37.38;17.63;;;4.40;99.90;;;2.68;100.00;101547.75;2569339;30;138513;-38
2021/11/12 07:00:17;;;;;;;37.25;15.57;;;4.40;99.90;;;2.66;100.00;101538.97;2571268;30;138419;-38
2021/11/12 07:02:45;;;;;;;36.13;16.50;;;4.40;99.90;;;2.68;100.00;101549.56;2568515;30;137859;-40
2021/11/12 07:05:14;;;;;;;35.80;16.23;;;4.40;99.90;;;2.62;100.00;101553.69;2569123;30;137589;-38
2021/11/12 07:07:42;;;;;;;38.95;16.20;;;4.40;99.90;;;2.71;100.00;101562.75;2568917;30;138207;-38
2021/11/12 07:10:10;;;;;;;38.22;16.63;;;4.40;99.90;;;2.77;100.00;101555.97;2570560;30;137265;-38
2021/11/12 07:12:38;;;;;;;36.75;17.05;;;4.50;99.90;;;2.82;100.00;101553.69;2571515;30;138560;-38
2021/11/12 07:15:07;;;;;;;41.22;16.65;;;4.50;99.90;;;2.81;100.00;101555.53;2568093;30;138842;-38
2021/11/12 07:17:37;;;;;;;41.67;17.77;;;4.50;99.90;;;2.78;100.00;101554.97;2571541;30;137871;-38
2021/11/12 07:20:06;;;;;;;38.72;16.83;;;4.50;99.90;;;2.85;100.00;101548.84;2570073;30;136826;-38
2021/11/12 07:22:35;;;;;;;37.83;17.70;;;4.60;99.90;;;2.96;100.00;101544.28;2569426;30;138746;-38
2021/11/12 07:25:05;;;;;;;40.28;18.13;;;4.60;99.90;;;2.94;100.00;101543.59;2570328;30;136926;-38
2021/11/12 07:27:33;;;;;;;39.47;17.52;;;4.60;99.90;;;2.89;100.00;101535.94;2571001;30;139377;-38
2021/11/12 07:30:14;;;;;;;39.88;18.30;;;4.60;99.90;;;2.90;100.00;101523.31;2568973;30;137542;-38
2021/11/12 07:32:44;;;;;;;39.78;17.10;;;4.60;99.90;;;2.97;100.00;101519.91;2568668;30;138539;-38
2021/11/12 07:35:15;;;;;;;41.95;19.10;;;4.60;99.90;;;2.96;100.00;101509.25;2566848;30;137223;-38
2021/11/12 07:37:43;;;;;;;36.78;18.48;;;4.70;99.90;;;3.00;100.00;101508.81;2569479;30;137362;-38
2021/11/12 07:40:20;;;;;;;39.03;18.40;;;4.70;99.90;;;2.98;100.00;101497.34;2570269;30;137754;-38
2021/11/12 07:43:21;;;;;;;40.78;19.88;;;4.70;99.90;;;3.04;100.00;101520.16;2571483;30;138355;-38
2021/11/12 07:45:52;;;;;;;38.45;18.35;;;4.70;99.90;;;3.09;100.00;101531.38;2567530;30;137810;-38
2021/11/12 07:48:19;;;;;;;40.20;18.98;;;4.80;99.90;;;3.10;100.00;101527.69;2568502;30;138475;-38
2021/11/12 07:50:47;;;;;;;41.58;19.63;;;4.80;99.90;;;3.08;100.00;101526.97;2569838;30;137776;-38
2021/11/12 07:53:15;;;;;;;44.38;20.63;;;4.80;99.90;;;3.16;100.00;101539.69;2567356;30;137401;-38
2021/11/12 07:55:42;;;;;;;37.97;18.90;;;4.80;99.90;;;3.19;100.00;101543.97;2569670;30;137121;-38
2021/11/12 07:58:10;;;;;;;36.55;18.38;;;4.90;99.90;;;3.19;100.00;101547.53;2567568;30;138301;-38
2021/11/12 08:00:37;;;;;;;37.30;17.92;;;4.90;99.90;;;3.21;100.00;101539.28;2570878;30;137144;-38
2021/11/12 08:03:05;;;;;;;36.75;18.17;;;4.90;99.90;;;3.23;100.00;101539.97;2569509;30;137803;-38
2021/11/12 08:05:38;;;;;;;37.15;17.00;;;4.90;99.90;;;3.21;100.00;101537.44;2571493;30;137648;-38
2021/11/12 08:08:09;;;;;;;35.40;17.70;;;4.90;99.90;;;3.26;100.00;101529.75;2566978;30;139151;-38
2021/11/12 08:10:51;;;;;;;35.50;17.48;;;4.90;99.90;;;3.25;100.00;101519.09;2569453;30;136777;-38
2021/11/12 08:13:34;;;;;;;31.50;16.08;;;5.00;99.90;;;3.22;100.00;101527.50;2569005;30;137161;-38
2021/11/12 08:16:49;;;;;;;33.90;16.42;;;4.90;99.90;;;3.23;100.00;101513.88;2567800;30;138675;-38
2021/11/12 08:18:59;;;;;;;30.60;16.45;;;4.90;99.90;;;3.26;100.00;101510.00;2569059;30;139174;-38
2021/11/12 08:24:09;;;;;;;28.50;15.55;;;4.90;99.90;;;3.20;100.00;101518.69;2567806;30;137804;-37
2021/11/12 08:27:38;;;;;;;30.67;16.02;;;4.90;99.90;;;3.22;100.00;101527.50;2569708;30;137912;-38
2021/11/12 08:37:35;;;;;;;34.03;17.10;;;5.00;99.90;;;3.30;100.00;101541.94;2570238;30;136904;-38
2021/11/12 08:40:12;;;;;;;35.28;17.00;;;5.00;99.90;;;3.30;100.00;101541.94;2571583;30;137920;-37
2021/11/12 08:47:59;;;;;;;;;;;5.00;99.90;;;3.42;100.00;101539.06;2568626;30;137843;-38
2021/11/12 08:50:27;;;;;;;34.90;15.77;;;5.10;99.90;;;3.45;100.00;101530.69;2571202;30;139112;-38
2021/11/12 08:53:05;;;;;;;37.15;18.27;;;5.10;99.90;;;3.52;100.00;101526.41;2571099;30;137779;-38
2021/11/12 08:55:35;;;;;;;38.58;18.52;;;5.10;99.90;;;3.51;100.00;101524.69;2572186;30;137333;-38
2021/11/12 08:58:07;;;;;;;42.83;20.35;;;5.10;99.90;;;3.55;100.00;101525.22;2569968;30;138686;-38
2021/11/12 09:00:36;;;;;;;45.08;22.13;;;5.20;99.90;;;3.59;100.00;101524.78;2568448;30;139040;-39
2021/11/12 09:03:04;;;;;;;49.95;22.30;;;5.30;99.90;;;3.64;100.00;101526.19;2567607;30;137474;-43
2021/11/12 09:05:33;;;;;;;47.53;22.73;;;5.30;99.90;;;3.69;100.00;101535.53;2568820;30;137865;-38
2021/11/12 09:08:01;;;;;;;47.92;23.10;;;5.30;99.90;;;3.70;100.00;101536.38;2568800;30;136764;-38
2021/11/12 09:10:30;;;;;;;53.92;25.40;;;5.40;99.90;;;3.71;100.00;101532.69;2569619;30;138626;-38
2021/11/12 09:13:14;;;;;;;50.70;24.45;;;5.40;99.90;;;3.79;100.00;101535.50;2567269;30;137169;-38
2021/11/12 09:15:47;;;;;;;49.40;23.67;;;5.40;99.90;;;3.85;100.00;101544.84;2567472;30;139234;-38
2021/11/12 09:18:17;;;;;;;50.70;22.77;;;5.50;99.90;;;3.90;100.00;101539.84;2570944;30;138752;-40
2021/11/12 09:20:46;;;;;;;51.45;23.88;;;5.50;99.90;;;3.92;100.00;101548.63;2568773;30;137577;-40
2021/11/12 09:23:14;;;;;;;53.55;24.67;;;5.60;99.90;;;3.95;100.00;101548.34;2567932;30;136906;-40
2021/11/12 09:25:42;;;;;;;42.53;22.05;;;5.60;99.90;;;3.97;100.00;101546.34;2566677;30;138371;-40
2021/11/12 09:28:12;;;;;;;;;;;5.60;99.90;;;4.02;100.00;101535.91;2567508;30;137814;-40
2021/11/12 09:30:40;;;;;;;47.42;22.63;;;5.60;99.90;;;4.04;100.00;101530.38;2565136;30;139081;-40
2021/11/12 09:33:09;;;;;;;46.63;23.58;;;5.60;99.90;;;4.09;100.00;101530.78;2568111;30;136899;-40
2021/11/12 09:35:37;;;;;;;46.30;23.88;;;5.70;99.90;;;4.13;100.00;101520.53;2564351;30;138096;-40
2021/11/12 09:38:05;;;;;;;44.83;22.88;;;5.70;99.90;;;4.22;100.00;101516.03;2568041;30;137821;-40
2021/11/12 09:40:33;;;;;;;44.70;23.00;;;5.80;99.90;;;4.30;100.00;101508.84;2567632;30;138521;-40
2021/11/12 09:43:01;;;;;;;42.40;22.35;;;5.90;99.90;;;4.31;100.00;101504.31;2567357;30;138210;-40
2021/11/12 09:45:29;;;;;;;45.88;23.52;;;5.90;99.90;;;4.40;99.24;101500.69;2566917;30;139079;-40
2021/11/12 09:47:57;;;;;;;44.95;23.23;;;6.00;99.90;;;4.42;99.26;101485.16;2566734;30;138306;-40
2021/11/12 09:50:30;;;;;;;41.25;21.50;;;6.00;99.90;;;4.54;99.94;101474.13;2566204;30;138787;-40
2021/11/12 09:53:00;;;;;;;43.33;23.90;;;6.10;99.90;;;4.52;99.08;101468.84;2567261;30;137903;-40
2021/11/12 09:55:31;;;;;;;43.53;23.80;;;6.10;99.90;;;4.63;99.03;101459.66;2567073;30;139073;-40
2021/11/12 09:58:00;;;;;;;40.78;22.58;;;6.20;99.90;;;4.74;98.62;101443.16;2568649;30;138473;-40
2021/11/12 10:00:32;;;;;;;42.38;22.52;;;6.20;99.90;;;4.79;96.71;101444.56;2567130;30;138079;-40
2021/11/12 10:03:01;;;;;;;39.03;21.92;;;6.40;99.90;;;4.77;95.91;101433.03;2567787;30;138204;-40
2021/11/12 10:05:48;;;;;;;40.70;20.42;;;6.40;99.90;;;4.77;96.32;101427.63;2567752;30;138483;-40
2021/11/12 10:08:27;;;;;;;31.92;18.38;;;6.30;99.90;;;4.73;95.70;101425.25;2568085;30;137599;-40
2021/11/12 10:11:30;;;;;;;33.33;19.15;;;6.30;99.90;;;4.82;95.56;101428.84;2565594;30;138026;-40
2021/11/12 10:14:12;;;;;;;31.02;17.02;;;6.40;99.90;;;4.87;94.94;101414.88;2568204;30;136831;-40
2021/11/12 10:16:42;;;;;;;31.38;17.17;;;6.40;99.90;;;4.91;94.76;101413.53;2567326;30;137092;-40
2021/11/12 10:19:13;;;;;;;30.55;15.82;;;6.50;99.90;;;4.96;94.34;101399.53;2567019;30;136861;-40
2021/11/12 10:22:10;;;;;;;29.15;15.95;;;6.50;99.90;;;4.98;94.49;101395.66;2567718;30;139069;-40
2021/11/12 10:24:52;;;;;;;27.40;15.27;;;6.60;99.90;;;5.03;94.41;101412.22;2567782;30;137440;-40
2021/11/12 10:27:27;;;;;;;31.05;15.05;;;6.60;99.90;;;5.12;94.21;101418.53;2565939;30;137675;-40
2021/11/12 10:30:00;;;;;;;25.67;14.30;;;6.60;99.90;;;5.17;94.54;101410.81;2566306;30;137671;-40
2021/11/12 10:32:34;;;;;;;27.55;14.95;;;6.70;99.90;;;5.20;92.31;101395.25;2566939;30;139216;-40
2021/11/12 10:35:28;;;;;;;27.60;15.15;;;6.70;99.90;;;5.28;93.42;101403.38;2565641;30;138419;-40
2021/11/12 10:38:16;;;;;;;27.42;14.98;;;6.80;99.90;;;5.37;93.44;101406.97;2565563;30;138929;-40
2021/11/12 10:40:45;;;;;;;26.80;15.38;;;6.80;99.90;;;5.33;92.50;101415.44;2567596;30;137428;-40
2021/11/12 10:43:22;;;;;;;24.65;14.57;;;6.90;99.90;;;5.35;92.96;101409.84;2566190;30;138485;-40
2021/11/12 10:46:03;;;;;;;24.92;14.27;;;6.80;99.90;;;5.46;93.01;101395.16;2567945;30;138362;-40
2021/11/12 10:48:31;;;;;;;26.60;14.40;;;6.90;99.90;;;5.53;91.73;101381.81;2566296;30;137221;-40
2021/11/12 10:51:20;;;;;;;25.75;14.27;;;7.00;99.90;;;5.40;90.93;101376.88;2568289;30;137701;-40
2021/11/12 10:53:53;;;;;;;26.05;14.25;;;6.90;99.90;;;5.44;91.27;101362.88;2568466;30;139227;-40
2021/11/12 10:56:23;;;;;;;25.50;14.73;;;7.00;99.90;;;5.54;91.99;101365.41;2568580;30;137548;-40
2021/11/12 10:59:05;;;;;;;25.35;14.90;;;7.00;99.90;;;5.61;90.52;101373.72;2568458;30;139055;-40
2021/11/12 11:01:38;;;;;;;24.13;14.00;;;7.10;99.90;;;5.77;91.67;101383.72;2568859;30;137690;-40
2021/11/12 11:04:23;;;;;;;26.83;15.35;;;7.20;99.90;;;5.89;91.34;101376.13;2566715;30;138173;-40
2021/11/12 11:06:51;;;;;;;26.25;15.15;;;7.30;99.90;;;5.83;89.90;101372.22;2566788;30;136714;-40
2021/11/12 11:09:35;;;;;;;24.92;13.90;;;7.30;99.90;;;5.88;90.48;101386.13;2569528;30;137389;-40
2021/11/12 11:12:03;;;;;;;24.77;13.77;;;7.40;99.90;;;5.92;89.29;101373.06;2568993;30;136713;-40
2021/11/12 11:14:32;;;;;;;24.92;15.13;;;7.50;99.90;;;6.01;89.79;101363.97;2567571;30;139409;-40
2021/11/12 11:17:27;;;;;;;24.45;14.30;;;7.50;99.90;;;6.07;89.03;101367.84;2566013;30;137603;-39
2021/11/12 11:19:55;;;;;;;21.73;13.15;;;7.50;99.90;;;6.04;87.11;101373.63;2568120;30;138431;-39
2021/11/12 11:22:24;;;;;;;26.08;14.40;;;7.50;99.90;;;6.03;87.52;101371.91;2568427;30;137474;-39
2021/11/12 11:24:51;;;;;;;24.50;13.30;;;7.60;99.90;;;6.00;87.53;101374.94;2568193;30;138406;-40
2021/11/12 11:27:19;;;;;;;23.08;13.60;;;7.50;99.90;;;6.00;87.23;101362.25;2568062;30;138467;-39
2021/11/12 11:29:46;;;;;;;19.50;12.48;;;7.50;99.90;;;6.02;87.22;101359.41;2566282;30;137430;-39
2021/11/12 11:32:14;;;;;;;23.08;12.95;;;7.60;99.90;;;6.03;87.06;101350.25;2567834;30;138479;-40
2021/11/12 11:34:43;;;;;;;22.45;13.27;;;7.50;99.90;;;6.10;86.71;101348.56;2568233;30;139232;-40
2021/11/12 11:37:13;;;;;;;22.90;13.82;;;7.60;99.90;;;6.16;86.57;101345.19;2567458;30;137767;-39
2021/11/12 11:39:41;;;;;;;20.67;13.00;;;7.60;99.90;;;6.16;86.23;101331.63;2568037;30;138087;-39
2021/11/12 11:42:09;;;;;;;21.10;13.23;;;7.70;99.90;;;6.21;86.76;101328.38;2567961;30;138283;-39
2021/11/12 11:44:38;;;;;;;;;;;7.70;99.90;;;6.28;85.86;101324.00;2567644;30;136810;-39
2021/11/12 11:47:07;;;;;;;22.05;12.25;;;7.80;99.90;;;6.36;86.91;101323.13;2568472;30;136756;-39
2021/11/12 11:49:37;;;;;;;21.17;12.90;;;7.80;99.90;;;6.43;86.00;101324.13;2566116;30;138580;-39
2021/11/12 11:52:09;;;;;;;21.35;12.93;;;7.90;99.90;;;6.51;86.60;101322.41;2567578;30;136684;-39
2021/11/12 11:54:47;;;;;;;21.90;12.55;;;7.90;99.90;;;6.59;85.41;101314.25;2568319;30;138815;-39
2021/11/12 11:57:19;;;;;;;21.98;12.75;;;8.00;99.90;;;6.57;84.92;101297.31;2566445;30;138075;-39
2021/11/12 11:59:47;;;;;;;20.58;12.55;;;8.00;99.90;;;6.64;85.49;101308.31;2566216;30;138219;-39
2021/11/12 12:02:21;;;;;;;22.27;11.48;;;8.10;99.90;;;6.68;85.23;101298.81;2568194;30;137618;-39
2021/11/12 12:04:56;;;;;;;21.10;12.18;;;8.10;99.90;;;6.75;84.87;101303.38;2567042;30;137397;-39
2021/11/12 12:07:29;;;;;;;19.80;11.90;;;8.20;99.90;;;6.84;85.33;101295.19;2568544;30;137772;-39
2021/11/12 12:10:17;;;;;;;22.67;12.55;;;8.30;99.90;;;6.94;84.33;101281.41;2566830;30;138025;-39
2021/11/12 12:12:54;;;;;;;19.30;11.70;;;8.30;99.90;;;7.01;83.68;101274.25;2567836;30;137598;-40
2021/11/12 12:15:22;;;;;;;20.15;12.32;;;8.40;99.90;;;7.07;82.94;101272.69;2566635;30;139730;-40
2021/11/12 12:18:11;;;;;;;19.98;11.30;;;8.50;99.90;;;7.08;83.25;101268.97;2568930;30;138584;-39
2021/11/12 12:21:21;;;;;;;21.23;12.00;;;8.50;99.90;;;7.16;82.47;101268.91;2567636;30;138591;-39
2021/11/12 13:25:51;;;;;;;19.17;11.32;;;9.60;99.90;;;8.11;77.96;101201.56;2567967;30;138282;-40
2021/11/12 13:28:34;;;;;;;20.23;12.25;;;9.60;99.90;;;8.16;78.04;101196.41;2569561;30;136736;-39
2021/11/12 13:31:18;;;;;;;20.15;11.40;;;9.60;99.90;;;8.15;76.94;101194.72;2564872;30;139454;-40
2021/11/12 13:33:51;;;;;;;19.02;11.30;;;9.60;99.90;;;8.14;77.52;101182.16;2568058;30;138291;-39
2021/11/12 13:36:35;;;;;;;18.90;11.60;;;9.60;99.90;;;8.17;77.24;101178.25;2568238;30;138496;-39
2021/11/12 13:39:17;;;;;;;19.13;10.48;;;9.60;99.90;;;8.21;78.05;101169.50;2567759;30;138453;-40
2021/11/12 13:41:55;;;;;;;21.67;11.93;;;9.70;99.90;;;8.18;77.34;101169.88;2567458;30;138502;-39
2021/11/12 13:44:30;;;;;;;19.85;11.82;;;9.70;99.90;;;8.18;77.05;101179.94;2567361;30;137559;-39
2021/11/12 13:47:00;;;;;;;18.50;11.00;;;9.70;99.90;;;8.17;78.02;101173.63;2568411;30;137306;-40
2021/11/12 13:49:43;;;;;;;19.30;11.98;;;9.70;99.90;;;8.12;78.05;101176.06;2567793;30;138249;-40
2021/11/12 13:52:28;;;;;;;18.48;11.45;;;9.60;99.90;;;8.12;78.36;101175.25;2566813;30;137205;-40
2021/11/12 13:55:07;;;;;;;20.25;11.77;;;9.60;99.90;;;8.08;77.55;101169.34;2567466;30;137865;-39
2021/11/12 13:57:36;;;;;;;20.08;11.60;;;9.60;99.90;;;8.09;77.44;101176.44;2568190;30;139838;-40
2021/11/12 14:00:06;;;;;;;17.52;11.18;;;9.60;99.90;;;8.11;77.65;101168.94;2566228;30;137520;-39
2021/11/12 14:02:55;;;;;;;18.65;11.18;;;9.60;99.90;;;8.10;77.32;101167.28;2568150;30;137271;-39
2021/11/12 14:05:23;;;;;;;18.05;10.50;;;9.60;99.90;;;8.06;77.69;101163.25;2567184;30;136870;-39
2021/11/12 14:08:10;;;;;;;20.13;10.73;;;9.60;99.90;;;8.02;77.65;101151.91;2567659;30;138170;-39
2021/11/12 14:10:44;;;;;;;21.10;11.93;;;9.50;99.90;;;8.00;77.57;101148.53;2567767;30;138661;-40
2021/11/12 14:13:19;;;;;;;17.85;11.30;;;9.50;99.90;;;7.99;77.56;101146.84;2565117;30;138282;-40
2021/11/12 14:16:14;;;;;;;19.33;11.60;;;9.50;99.90;;;7.99;78.11;101140.56;2565107;30;137651;-39
2021/11/12 14:22:07;;;;;;;20.85;11.68;;;9.50;99.90;;;7.86;78.30;101122.22;2567006;30;137683;-40
2021/11/12 14:27:11;;;;;;;17.83;10.60;;;9.40;99.90;;;7.88;78.23;101112.00;2568680;30;137172;-39
2021/11/12 14:38:00;;;;;;;19.15;11.77;;;9.40;99.90;;;7.73;77.72;101099.25;2568349;30;138421;-39
2021/11/12 14:46:42;;;;;;;17.88;10.43;;;9.30;99.90;;;7.66;79.01;101078.44;2568178;30;138895;-39
2021/11/12 14:49:17;;;;;;;18.33;10.65;;;9.20;99.90;;;7.62;79.03;101081.53;2568901;30;137924;-39
2021/11/12 14:52:04;;;;;;;16.73;10.70;;;9.20;99.90;;;7.70;77.09;101069.75;2568112;30;138300;-39
2021/11/12 14:54:49;;;;;;;18.58;10.93;;;9.20;99.90;;;7.59;77.65;101070.22;2568608;30;137355;-40
2021/11/12 15:00:16;;;;;;;15.40;9.88;;;9.10;99.90;;;7.46;78.29;101074.41;2568118;30;137732;-39